sensor_id;sensor_type;location;lat;lon;timestamp;P1;durP1;ratioP1;P2;durP2;ratioP2
3767;SDS011;1899;49.966;7.106;2023-03-25T05:01:51;2.25;;;1.15;;
3767;SDS011;1899;49.966;7.106;2023-03-25T05:04:17;2.85;;;1.20;;
3767;SDS011;1899;49.966;7.106;2023-03-25T05:06:47;4.07;;;1.20;;
3767;SDS011;1899;49.966;7.106;2023-03-25T05:09:14;3.40;;;1.08;;
3767;SDS011;1899;49.966;7.106;2023-03-25T05:11:40;4.93;;;1.38;;
3767;SDS011;1899;49.966;7.106;2023-03-25T05:14:06;5.20;;;1.70;;
3767;SDS011;1899;49.966;7.106;2023-03-25T05:16:31;4.43;;;1.53;;
3767;SDS011;1899;49.966;7.106;2023-03-25T05:18:57;2.80;;;1.30;;
3767;SDS011;1899;49.966;7.106;2023-03-25T05:21:22;4.97;;;1.57;;
3767;SDS011;1899;49.966;7.106;2023-03-25T05:23:47;5.47;;;1.60;;
3767;SDS011;1899;49.966;7.106;2023-03-25T05:26:13;6.10;;;2.03;;
3767;SDS011;1899;49.966;7.106;2023-03-25T05:28:39;4.30;;;1.50;;
3767;SDS011;1899;49.966;7.106;2023-03-25T05:31:05;5.18;;;1.90;;
3767;SDS011;1899;49.966;7.106;2023-03-25T05:33:33;4.13;;;1.40;;
3767;SDS011;1899;49.966;7.106;2023-03-25T05:35:58;4.20;;;1.70;;
3767;SDS011;1899;49.966;7.106;2023-03-25T05:38:23;3.83;;;1.60;;
3767;SDS011;1899;49.966;7.106;2023-03-25T05:40:49;3.43;;;1.80;;
3767;SDS011;1899;49.966;7.106;2023-03-25T05:43:15;6.22;;;2.00;;
3767;SDS011;1899;49.966;7.106;2023-03-25T05:45:41;8.98;;;2.10;;
3767;SDS011;1899;49.966;7.106;2023-03-25T05:48:06;5.57;;;2.00;;
3767;SDS011;1899;49.966;7.106;2023-03-25T05:50:32;7.82;;;1.80;;
3767;SDS011;1899;49.966;7.106;2023-03-25T05:52:57;7.40;;;2.40;;
3767;SDS011;1899;49.966;7.106;2023-03-25T05:55:23;4.57;;;1.70;;
3767;SDS011;1899;49.966;7.106;2023-03-25T05:57:49;8.95;;;2.03;;
3767;SDS011;1899;49.966;7.106;2023-03-25T06:00:15;5.70;;;2.00;;
3767;SDS011;1899;49.966;7.106;2023-03-25T06:02:40;5.20;;;1.90;;
3767;SDS011;1899;49.966;7.106;2023-03-25T06:05:08;4.88;;;1.58;;
3767;SDS011;1899;49.966;7.106;2023-03-25T06:07:37;11.00;;;2.63;;
3767;SDS011;1899;49.966;7.106;2023-03-25T06:10:04;7.60;;;2.15;;
3767;SDS011;1899;49.966;7.106;2023-03-25T06:12:29;7.35;;;2.33;;
3767;SDS011;1899;49.966;7.106;2023-03-25T06:14:57;9.05;;;2.60;;
3767;SDS011;1899;49.966;7.106;2023-03-25T06:17:22;7.47;;;2.47;;
3767;SDS011;1899;49.966;7.106;2023-03-25T06:19:48;8.40;;;2.50;;
3767;SDS011;1899;49.966;7.106;2023-03-25T06:22:13;12.20;;;2.30;;
3767;SDS011;1899;49.966;7.106;2023-03-25T06:24:39;6.65;;;2.10;;
3767;SDS011;1899;49.966;7.106;2023-03-25T06:27:06;10.43;;;2.30;;
3767;SDS011;1899;49.966;7.106;2023-03-25T06:29:32;8.80;;;2.65;;
3767;SDS011;1899;49.966;7.106;2023-03-25T06:31:58;7.50;;;2.10;;
3767;SDS011;1899;49.966;7.106;2023-03-25T06:34:23;12.03;;;2.90;;
3767;SDS011;1899;49.966;7.106;2023-03-25T06:36:48;9.60;;;2.40;;
3767;SDS011;1899;49.966;7.106;2023-03-25T06:39:14;5.40;;;2.30;;
3767;SDS011;1899;49.966;7.106;2023-03-25T06:41:39;10.27;;;2.60;;
3767;SDS011;1899;49.966;7.106;2023-03-25T06:44:05;7.90;;;2.57;;
3767;SDS011;1899;49.966;7.106;2023-03-25T06:46:30;10.07;;;3.00;;
3767;SDS011;1899;49.966;7.106;2023-03-25T06:48:55;10.17;;;2.33;;
3767;SDS011;1899;49.966;7.106;2023-03-25T06:51:20;8.73;;;2.90;;
3767;SDS011;1899;49.966;7.106;2023-03-25T06:53:46;8.45;;;3.28;;
3767;SDS011;1899;49.966;7.106;2023-03-25T06:56:12;9.40;;;2.30;;
3767;SDS011;1899;49.966;7.106;2023-03-25T06:58:37;7.50;;;2.43;;
3767;SDS011;1899;49.966;7.106;2023-03-25T07:01:03;8.70;;;2.60;;
3767;SDS011;1899;49.966;7.106;2023-03-25T07:03:31;10.50;;;2.70;;
3767;SDS011;1899;49.966;7.106;2023-03-25T07:05:56;10.88;;;2.88;;
3767;SDS011;1899;49.966;7.106;2023-03-25T07:08:21;8.23;;;2.60;;
3767;SDS011;1899;49.966;7.106;2023-03-25T07:10:46;9.67;;;2.80;;
3767;SDS011;1899;49.966;7.106;2023-03-25T07:13:12;8.40;;;2.90;;
3767;SDS011;1899;49.966;7.106;2023-03-25T07:15:37;7.73;;;2.73;;
3767;SDS011;1899;49.966;7.106;2023-03-25T07:18:03;8.10;;;2.60;;
3767;SDS011;1899;49.966;7.106;2023-03-25T07:20:28;10.80;;;3.60;;
3767;SDS011;1899;49.966;7.106;2023-03-25T07:22:53;7.23;;;2.30;;
3767;SDS011;1899;49.966;7.106;2023-03-25T07:25:19;9.93;;;2.67;;
3767;SDS011;1899;49.966;7.106;2023-03-25T07:27:45;7.17;;;2.47;;
3767;SDS011;1899;49.966;7.106;2023-03-25T07:30:10;11.60;;;2.70;;
3767;SDS011;1899;49.966;7.106;2023-03-25T07:32:35;8.60;;;2.85;;
3767;SDS011;1899;49.966;7.106;2023-03-25T07:35:01;8.27;;;2.47;;
3767;SDS011;1899;49.966;7.106;2023-03-25T07:37:26;9.45;;;2.38;;
3767;SDS011;1899;49.966;7.106;2023-03-25T07:39:51;9.97;;;3.00;;
3767;SDS011;1899;49.966;7.106;2023-03-25T07:42:16;9.48;;;2.70;;
3767;SDS011;1899;49.966;7.106;2023-03-25T07:44:42;12.83;;;2.27;;
3767;SDS011;1899;49.966;7.106;2023-03-25T07:47:07;9.33;;;2.40;;
3767;SDS011;1899;49.966;7.106;2023-03-25T07:49:32;6.33;;;2.27;;
3767;SDS011;1899;49.966;7.106;2023-03-25T07:51:57;10.33;;;2.40;;
3767;SDS011;1899;49.966;7.106;2023-03-25T07:54:23;7.87;;;2.63;;
3767;SDS011;1899;49.966;7.106;2023-03-25T07:56:48;7.83;;;2.33;;
3767;SDS011;1899;49.966;7.106;2023-03-25T07:59:14;10.00;;;2.60;;
3767;SDS011;1899;49.966;7.106;2023-03-25T08:01:39;6.47;;;2.20;;
3767;SDS011;1899;49.966;7.106;2023-03-25T08:04:04;10.13;;;3.37;;
3767;SDS011;1899;49.966;7.106;2023-03-25T08:06:29;11.03;;;2.80;;
3767;SDS011;1899;49.966;7.106;2023-03-25T08:08:55;8.63;;;2.90;;
3767;SDS011;1899;49.966;7.106;2023-03-25T08:11:20;13.57;;;2.78;;
3767;SDS011;1899;49.966;7.106;2023-03-25T08:13:46;11.93;;;2.72;;
3767;SDS011;1899;49.966;7.106;2023-03-25T08:16:11;11.27;;;2.70;;
3767;SDS011;1899;49.966;7.106;2023-03-25T08:18:37;7.22;;;2.97;;
3767;SDS011;1899;49.966;7.106;2023-03-25T08:21:02;11.23;;;3.10;;
3767;SDS011;1899;49.966;7.106;2023-03-25T08:23:28;12.88;;;3.00;;
3767;SDS011;1899;49.966;7.106;2023-03-25T08:25:53;11.53;;;3.20;;
3767;SDS011;1899;49.966;7.106;2023-03-25T08:28:18;7.40;;;2.30;;
3767;SDS011;1899;49.966;7.106;2023-03-25T08:30:47;2.75;;;1.38;;
3767;SDS011;1899;49.966;7.106;2023-03-25T08:33:13;5.68;;;1.40;;
3767;SDS011;1899;49.966;7.106;2023-03-25T08:35:40;2.88;;;1.10;;
3767;SDS011;1899;49.966;7.106;2023-03-25T08:38:06;2.80;;;0.90;;
3767;SDS011;1899;49.966;7.106;2023-03-25T08:40:33;3.35;;;1.00;;
3767;SDS011;1899;49.966;7.106;2023-03-25T08:42:59;3.90;;;1.13;;
3767;SDS011;1899;49.966;7.106;2023-03-25T08:45:24;1.83;;;1.20;;
3767;SDS011;1899;49.966;7.106;2023-03-25T08:47:49;5.20;;;1.30;;
3767;SDS011;1899;49.966;7.106;2023-03-25T08:50:15;4.60;;;1.20;;
3767;SDS011;1899;49.966;7.106;2023-03-25T08:52:40;3.05;;;1.35;;
3767;SDS011;1899;49.966;7.106;2023-03-25T08:55:06;5.40;;;1.40;;
3767;SDS011;1899;49.966;7.106;2023-03-25T08:57:33;3.65;;;1.30;;
3767;SDS011;1899;49.966;7.106;2023-03-25T08:59:58;4.15;;;1.30;;
3767;SDS011;1899;49.966;7.106;2023-03-25T09:02:23;2.92;;;0.95;;
3767;SDS011;1899;49.966;7.106;2023-03-25T09:04:49;4.70;;;1.30;;
3767;SDS011;1899;49.966;7.106;2023-03-25T09:07:14;5.83;;;1.30;;
3767;SDS011;1899;49.966;7.106;2023-03-25T09:09:40;3.50;;;1.50;;
3767;SDS011;1899;49.966;7.106;2023-03-25T09:12:06;6.00;;;1.30;;
3767;SDS011;1899;49.966;7.106;2023-03-25T09:14:31;6.15;;;1.20;;
3767;SDS011;1899;49.966;7.106;2023-03-25T09:16:56;3.40;;;1.00;;
3767;SDS011;1899;49.966;7.106;2023-03-25T09:19:22;2.97;;;1.20;;
3767;SDS011;1899;49.966;7.106;2023-03-25T09:21:47;4.13;;;1.30;;
3767;SDS011;1899;49.966;7.106;2023-03-25T09:24:12;4.30;;;1.20;;
3767;SDS011;1899;49.966;7.106;2023-03-25T09:26:38;3.60;;;1.20;;
3767;SDS011;1899;49.966;7.106;2023-03-25T09:29:03;3.90;;;1.70;;
3767;SDS011;1899;49.966;7.106;2023-03-25T09:31:28;5.67;;;1.80;;
3767;SDS011;1899;49.966;7.106;2023-03-25T09:33:54;4.78;;;1.17;;
3767;SDS011;1899;49.966;7.106;2023-03-25T09:36:20;3.53;;;1.70;;
3767;SDS011;1899;49.966;7.106;2023-03-25T09:38:45;4.20;;;1.10;;
3767;SDS011;1899;49.966;7.106;2023-03-25T09:41:32;4.43;;;1.53;;
3767;SDS011;1899;49.966;7.106;2023-03-25T09:44:12;7.43;;;1.70;;
3767;SDS011;1899;49.966;7.106;2023-03-25T09:46:41;4.82;;;1.55;;
3767;SDS011;1899;49.966;7.106;2023-03-25T09:49:15;6.03;;;1.90;;
3767;SDS011;1899;49.966;7.106;2023-03-25T09:51:42;4.78;;;1.50;;
3767;SDS011;1899;49.966;7.106;2023-03-25T09:54:24;5.68;;;1.50;;
3767;SDS011;1899;49.966;7.106;2023-03-25T09:56:50;4.93;;;1.73;;
3767;SDS011;1899;49.966;7.106;2023-03-25T09:59:17;5.47;;;1.80;;
3767;SDS011;1899;49.966;7.106;2023-03-25T10:02:01;5.30;;;1.70;;
3767;SDS011;1899;49.966;7.106;2023-03-25T10:12:16;3.72;;;1.30;;
3767;SDS011;1899;49.966;7.106;2023-03-25T10:17:29;4.55;;;1.52;;
3767;SDS011;1899;49.966;7.106;2023-03-25T10:20:02;4.95;;;1.70;;
3767;SDS011;1899;49.966;7.106;2023-03-25T10:25:05;4.70;;;1.50;;
3767;SDS011;1899;49.966;7.106;2023-03-25T10:27:36;6.78;;;1.60;;
3767;SDS011;1899;49.966;7.106;2023-03-25T10:32:40;4.70;;;1.50;;
3767;SDS011;1899;49.966;7.106;2023-03-25T10:35:08;4.80;;;1.70;;
3767;SDS011;1899;49.966;7.106;2023-03-25T10:37:35;5.28;;;1.30;;
3767;SDS011;1899;49.966;7.106;2023-03-25T10:40:11;4.03;;;1.60;;
3767;SDS011;1899;49.966;7.106;2023-03-25T10:42:40;4.95;;;1.70;;
3767;SDS011;1899;49.966;7.106;2023-03-25T10:45:11;4.57;;;1.70;;
3767;SDS011;1899;49.966;7.106;2023-03-25T10:47:37;6.13;;;1.52;;
3767;SDS011;1899;49.966;7.106;2023-03-25T10:50:04;4.38;;;1.38;;
3767;SDS011;1899;49.966;7.106;2023-03-25T10:52:30;6.05;;;1.67;;
3767;SDS011;1899;49.966;7.106;2023-03-25T10:54:55;3.70;;;1.30;;
3767;SDS011;1899;49.966;7.106;2023-03-25T10:57:25;3.07;;;1.60;;
3767;SDS011;1899;49.966;7.106;2023-03-25T11:02:23;5.43;;;1.70;;
3767;SDS011;1899;49.966;7.106;2023-03-25T11:04:51;3.47;;;1.20;;
3767;SDS011;1899;49.966;7.106;2023-03-25T11:07:22;4.13;;;1.30;;
3767;SDS011;1899;49.966;7.106;2023-03-25T11:09:50;4.22;;;1.30;;
3767;SDS011;1899;49.966;7.106;2023-03-25T11:12:18;3.47;;;1.20;;
3767;SDS011;1899;49.966;7.106;2023-03-25T11:14:44;5.70;;;1.70;;
3767;SDS011;1899;49.966;7.106;2023-03-25T11:17:17;4.68;;;1.30;;
3767;SDS011;1899;49.966;7.106;2023-03-25T11:19:52;5.13;;;1.52;;
3767;SDS011;1899;49.966;7.106;2023-03-25T11:22:24;5.05;;;1.55;;
3767;SDS011;1899;49.966;7.106;2023-03-25T11:24:50;6.25;;;1.80;;
3767;SDS011;1899;49.966;7.106;2023-03-25T11:27:21;5.63;;;1.30;;
3767;SDS011;1899;49.966;7.106;2023-03-25T11:30:00;5.43;;;1.50;;
3767;SDS011;1899;49.966;7.106;2023-03-25T11:32:34;6.20;;;1.40;;
3767;SDS011;1899;49.966;7.106;2023-03-25T11:35:01;2.92;;;1.20;;
3767;SDS011;1899;49.966;7.106;2023-03-25T11:37:28;5.22;;;1.80;;
3767;SDS011;1899;49.966;7.106;2023-03-25T11:39:56;4.97;;;1.52;;
3767;SDS011;1899;49.966;7.106;2023-03-25T11:42:32;3.67;;;1.42;;
3767;SDS011;1899;49.966;7.106;2023-03-25T11:44:59;3.70;;;1.40;;
3767;SDS011;1899;49.966;7.106;2023-03-25T11:47:30;3.95;;;1.30;;
3767;SDS011;1899;49.966;7.106;2023-03-25T11:49:56;5.63;;;1.45;;
3767;SDS011;1899;49.966;7.106;2023-03-25T11:52:25;3.40;;;1.20;;
3767;SDS011;1899;49.966;7.106;2023-03-25T11:54:52;3.22;;;1.25;;
3767;SDS011;1899;49.966;7.106;2023-03-25T11:57:22;4.20;;;1.60;;
3767;SDS011;1899;49.966;7.106;2023-03-25T11:59:48;5.73;;;1.70;;
3767;SDS011;1899;49.966;7.106;2023-03-25T12:05:00;5.00;;;1.13;;
3767;SDS011;1899;49.966;7.106;2023-03-25T12:07:25;4.87;;;1.80;;
3767;SDS011;1899;49.966;7.106;2023-03-25T12:09:55;4.07;;;1.30;;
3767;SDS011;1899;49.966;7.106;2023-03-25T12:12:39;3.33;;;1.20;;
3767;SDS011;1899;49.966;7.106;2023-03-25T12:23:17;3.80;;;1.40;;
3767;SDS011;1899;49.966;7.106;2023-03-25T12:28:41;4.13;;;1.33;;
3767;SDS011;1899;49.966;7.106;2023-03-25T12:36:33;5.30;;;1.65;;
3767;SDS011;1899;49.966;7.106;2023-03-25T12:39:09;5.82;;;1.60;;
3767;SDS011;1899;49.966;7.106;2023-03-25T12:41:48;4.88;;;1.67;;
3767;SDS011;1899;49.966;7.106;2023-03-25T12:44:25;3.72;;;1.52;;
3767;SDS011;1899;49.966;7.106;2023-03-25T12:47:03;3.63;;;1.60;;
3767;SDS011;1899;49.966;7.106;2023-03-25T12:52:07;3.33;;;1.27;;
3767;SDS011;1899;49.966;7.106;2023-03-25T12:54:44;4.03;;;1.30;;
3767;SDS011;1899;49.966;7.106;2023-03-25T12:57:16;3.90;;;1.40;;
3767;SDS011;1899;49.966;7.106;2023-03-25T13:02:21;4.18;;;1.50;;
3767;SDS011;1899;49.966;7.106;2023-03-25T13:14:54;4.25;;;1.48;;
3767;SDS011;1899;49.966;7.106;2023-03-25T13:17:24;3.33;;;1.27;;
3767;SDS011;1899;49.966;7.106;2023-03-25T13:19:51;2.63;;;1.10;;
3767;SDS011;1899;49.966;7.106;2023-03-25T13:22:20;5.78;;;1.50;;
3767;SDS011;1899;49.966;7.106;2023-03-25T13:24:54;5.80;;;1.50;;
3767;SDS011;1899;49.966;7.106;2023-03-25T13:27:21;5.60;;;1.30;;
3767;SDS011;1899;49.966;7.106;2023-03-25T13:29:48;5.17;;;1.80;;
3767;SDS011;1899;49.966;7.106;2023-03-25T13:32:19;4.30;;;1.40;;
3767;SDS011;1899;49.966;7.106;2023-03-25T13:37:45;3.15;;;1.45;;
3767;SDS011;1899;49.966;7.106;2023-03-25T13:40:21;2.40;;;1.30;;
3767;SDS011;1899;49.966;7.106;2023-03-25T13:42:58;5.07;;;1.60;;
3767;SDS011;1899;49.966;7.106;2023-03-25T13:45:26;4.25;;;1.65;;
3767;SDS011;1899;49.966;7.106;2023-03-25T13:48:03;5.30;;;1.63;;
3767;SDS011;1899;49.966;7.106;2023-03-25T13:50:29;4.20;;;1.30;;
3767;SDS011;1899;49.966;7.106;2023-03-25T13:52:57;4.78;;;1.50;;
3767;SDS011;1899;49.966;7.106;2023-03-25T13:55:32;4.82;;;1.73;;
3767;SDS011;1899;49.966;7.106;2023-03-25T14:00:55;3.03;;;1.60;;
3767;SDS011;1899;49.966;7.106;2023-03-25T14:13:39;4.40;;;1.40;;
3767;SDS011;1899;49.966;7.106;2023-03-25T14:16:10;4.47;;;1.60;;
3767;SDS011;1899;49.966;7.106;2023-03-25T14:18:57;3.75;;;1.25;;
3767;SDS011;1899;49.966;7.106;2023-03-25T14:21:28;4.57;;;1.80;;
3767;SDS011;1899;49.966;7.106;2023-03-25T14:24:11;4.05;;;1.23;;
3767;SDS011;1899;49.966;7.106;2023-03-25T14:26:51;5.45;;;1.50;;
3767;SDS011;1899;49.966;7.106;2023-03-25T14:29:23;4.88;;;1.70;;
3767;SDS011;1899;49.966;7.106;2023-03-25T14:34:34;4.97;;;1.40;;
3767;SDS011;1899;49.966;7.106;2023-03-25T14:44:26;4.20;;;1.70;;
3767;SDS011;1899;49.966;7.106;2023-03-25T14:52:15;4.72;;;1.58;;
3767;SDS011;1899;49.966;7.106;2023-03-25T14:54:42;4.00;;;1.50;;
3767;SDS011;1899;49.966;7.106;2023-03-25T14:57:14;3.70;;;1.20;;
3767;SDS011;1899;49.966;7.106;2023-03-25T14:59:44;2.50;;;1.20;;
3767;SDS011;1899;49.966;7.106;2023-03-25T15:02:29;4.95;;;1.40;;
3767;SDS011;1899;49.966;7.106;2023-03-25T15:04:56;3.70;;;1.40;;
3767;SDS011;1899;49.966;7.106;2023-03-25T15:10:07;3.63;;;1.10;;
3767;SDS011;1899;49.966;7.106;2023-03-25T15:12:32;2.92;;;1.30;;
3767;SDS011;1899;49.966;7.106;2023-03-25T15:15:05;3.38;;;1.35;;
3767;SDS011;1899;49.966;7.106;2023-03-25T15:18:04;3.28;;;1.30;;
3767;SDS011;1899;49.966;7.106;2023-03-25T15:25:31;3.88;;;1.05;;
3767;SDS011;1899;49.966;7.106;2023-03-25T15:27:59;3.05;;;1.33;;
3767;SDS011;1899;49.966;7.106;2023-03-25T15:30:34;3.95;;;1.27;;
3767;SDS011;1899;49.966;7.106;2023-03-25T15:36:10;3.10;;;1.27;;
3767;SDS011;1899;49.966;7.106;2023-03-25T15:43:55;3.37;;;1.30;;
3767;SDS011;1899;49.966;7.106;2023-03-25T15:56:53;4.80;;;1.23;;
3767;SDS011;1899;49.966;7.106;2023-03-25T15:59:31;4.22;;;1.50;;
3767;SDS011;1899;49.966;7.106;2023-03-25T16:02:02;4.47;;;1.20;;
3767;SDS011;1899;49.966;7.106;2023-03-25T16:06:56;3.05;;;1.20;;
3767;SDS011;1899;49.966;7.106;2023-03-25T16:09:23;3.38;;;1.35;;
3767;SDS011;1899;49.966;7.106;2023-03-25T16:11:50;4.35;;;1.30;;
3767;SDS011;1899;49.966;7.106;2023-03-25T16:14:20;2.67;;;1.02;;
3767;SDS011;1899;49.966;7.106;2023-03-25T16:16:52;4.85;;;1.48;;
3767;SDS011;1899;49.966;7.106;2023-03-25T16:19:26;4.63;;;1.60;;
3767;SDS011;1899;49.966;7.106;2023-03-25T16:21:54;4.85;;;1.45;;
3767;SDS011;1899;49.966;7.106;2023-03-25T16:24:23;4.00;;;1.50;;
3767;SDS011;1899;49.966;7.106;2023-03-25T16:26:48;4.90;;;1.80;;
3767;SDS011;1899;49.966;7.106;2023-03-25T16:29:21;5.87;;;1.40;;
3767;SDS011;1899;49.966;7.106;2023-03-25T16:31:54;3.40;;;1.17;;
3767;SDS011;1899;49.966;7.106;2023-03-25T16:34:20;3.20;;;0.90;;
3767;SDS011;1899;49.966;7.106;2023-03-25T16:36:46;2.42;;;0.90;;
3767;SDS011;1899;49.966;7.106;2023-03-25T16:39:12;2.20;;;0.88;;
3767;SDS011;1899;49.966;7.106;2023-03-25T16:41:41;1.50;;;0.85;;
3767;SDS011;1899;49.966;7.106;2023-03-25T16:44:07;1.70;;;0.70;;
3767;SDS011;1899;49.966;7.106;2023-03-25T16:46:32;1.43;;;0.80;;
3767;SDS011;1899;49.966;7.106;2023-03-25T16:48:58;1.90;;;0.70;;
3767;SDS011;1899;49.966;7.106;2023-03-25T16:51:24;1.00;;;0.60;;
3767;SDS011;1899;49.966;7.106;2023-03-25T16:53:53;1.80;;;0.50;;
3767;SDS011;1899;49.966;7.106;2023-03-25T16:56:28;1.83;;;0.70;;
3767;SDS011;1899;49.966;7.106;2023-03-25T17:01:39;1.10;;;0.60;;
3767;SDS011;1899;49.966;7.106;2023-03-25T17:06:32;1.83;;;0.80;;
3767;SDS011;1899;49.966;7.106;2023-03-25T17:09:15;1.20;;;0.60;;
3767;SDS011;1899;49.966;7.106;2023-03-25T17:11:41;1.40;;;0.60;;
3767;SDS011;1899;49.966;7.106;2023-03-25T17:14:09;2.60;;;0.80;;
3767;SDS011;1899;49.966;7.106;2023-03-25T17:16:39;1.90;;;0.70;;
3767;SDS011;1899;49.966;7.106;2023-03-25T17:19:05;1.10;;;0.60;;
3767;SDS011;1899;49.966;7.106;2023-03-25T17:21:32;2.37;;;0.70;;
3767;SDS011;1899;49.966;7.106;2023-03-25T17:24:01;1.27;;;0.80;;
3767;SDS011;1899;49.966;7.106;2023-03-25T17:26:31;1.53;;;0.73;;
3767;SDS011;1899;49.966;7.106;2023-03-25T17:29:00;2.75;;;0.80;;
3767;SDS011;1899;49.966;7.106;2023-03-25T17:33:58;3.40;;;0.90;;
3767;SDS011;1899;49.966;7.106;2023-03-25T17:36:23;2.58;;;0.70;;
3767;SDS011;1899;49.966;7.106;2023-03-25T17:38:50;1.20;;;0.70;;
3767;SDS011;1899;49.966;7.106;2023-03-25T17:41:17;2.47;;;0.80;;
3767;SDS011;1899;49.966;7.106;2023-03-25T17:43:46;1.80;;;0.80;;
3767;SDS011;1899;49.966;7.106;2023-03-25T17:46:12;1.80;;;0.80;;
3767;SDS011;1899;49.966;7.106;2023-03-25T17:48:40;1.85;;;0.75;;
3767;SDS011;1899;49.966;7.106;2023-03-25T17:51:06;2.13;;;0.77;;
3767;SDS011;1899;49.966;7.106;2023-03-25T17:53:31;1.73;;;0.80;;
3767;SDS011;1899;49.966;7.106;2023-03-25T17:55:56;3.00;;;1.00;;
3767;SDS011;1899;49.966;7.106;2023-03-25T17:58:23;1.40;;;0.73;;
3767;SDS011;1899;49.966;7.106;2023-03-25T18:00:49;3.30;;;0.90;;
3767;SDS011;1899;49.966;7.106;2023-03-25T18:03:21;1.50;;;0.80;;
3767;SDS011;1899;49.966;7.106;2023-03-25T18:05:48;2.28;;;0.90;;
3767;SDS011;1899;49.966;7.106;2023-03-25T18:08:17;1.73;;;0.80;;
3767;SDS011;1899;49.966;7.106;2023-03-25T18:10:43;1.10;;;0.70;;
3767;SDS011;1899;49.966;7.106;2023-03-25T18:13:08;3.17;;;1.07;;
3767;SDS011;1899;49.966;7.106;2023-03-25T18:15:34;2.50;;;0.88;;
3767;SDS011;1899;49.966;7.106;2023-03-25T18:18:01;2.95;;;0.90;;
3767;SDS011;1899;49.966;7.106;2023-03-25T18:20:27;1.70;;;1.00;;
3767;SDS011;1899;49.966;7.106;2023-03-25T18:22:53;1.17;;;0.90;;
3767;SDS011;1899;49.966;7.106;2023-03-25T18:25:19;1.92;;;0.80;;
3767;SDS011;1899;49.966;7.106;2023-03-25T18:27:50;1.60;;;0.90;;
3767;SDS011;1899;49.966;7.106;2023-03-25T18:30:17;1.92;;;0.70;;
3767;SDS011;1899;49.966;7.106;2023-03-25T18:32:44;2.10;;;0.80;;
3767;SDS011;1899;49.966;7.106;2023-03-25T18:35:09;1.85;;;0.80;;
3767;SDS011;1899;49.966;7.106;2023-03-25T18:37:34;2.30;;;0.80;;
3767;SDS011;1899;49.966;7.106;2023-03-25T18:40:00;1.50;;;0.90;;
3767;SDS011;1899;49.966;7.106;2023-03-25T18:42:25;1.50;;;1.05;;
3767;SDS011;1899;49.966;7.106;2023-03-25T18:44:51;2.13;;;0.80;;
3767;SDS011;1899;49.966;7.106;2023-03-25T18:47:16;2.60;;;0.80;;
3767;SDS011;1899;49.966;7.106;2023-03-25T18:49:42;3.40;;;0.90;;
3767;SDS011;1899;49.966;7.106;2023-03-25T18:52:07;2.30;;;1.10;;
3767;SDS011;1899;49.966;7.106;2023-03-25T18:54:32;3.33;;;1.07;;
3767;SDS011;1899;49.966;7.106;2023-03-25T18:56:58;4.73;;;1.10;;
3767;SDS011;1899;49.966;7.106;2023-03-25T18:59:23;2.70;;;1.23;;
3767;SDS011;1899;49.966;7.106;2023-03-25T19:01:48;2.90;;;1.00;;
3767;SDS011;1899;49.966;7.106;2023-03-25T19:04:13;2.30;;;0.90;;
3767;SDS011;1899;49.966;7.106;2023-03-25T19:06:39;2.00;;;0.90;;
3767;SDS011;1899;49.966;7.106;2023-03-25T19:09:04;2.72;;;1.00;;
3767;SDS011;1899;49.966;7.106;2023-03-25T19:11:30;2.55;;;1.38;;
3767;SDS011;1899;49.966;7.106;2023-03-25T19:13:57;2.70;;;1.20;;
3767;SDS011;1899;49.966;7.106;2023-03-25T19:16:23;2.47;;;1.20;;
3767;SDS011;1899;49.966;7.106;2023-03-25T19:18:48;2.03;;;1.00;;
3767;SDS011;1899;49.966;7.106;2023-03-25T19:21:14;4.80;;;1.10;;
3767;SDS011;1899;49.966;7.106;2023-03-25T19:23:40;2.15;;;0.85;;
3767;SDS011;1899;49.966;7.106;2023-03-25T19:26:06;1.52;;;0.80;;
3767;SDS011;1899;49.966;7.106;2023-03-25T19:28:32;4.50;;;1.00;;
3767;SDS011;1899;49.966;7.106;2023-03-25T19:30:59;3.20;;;0.90;;
3767;SDS011;1899;49.966;7.106;2023-03-25T19:33:24;4.05;;;1.20;;
3767;SDS011;1899;49.966;7.106;2023-03-25T19:35:51;1.80;;;1.10;;
3767;SDS011;1899;49.966;7.106;2023-03-25T19:38:18;2.22;;;1.20;;
3767;SDS011;1899;49.966;7.106;2023-03-25T19:40:47;4.10;;;1.30;;
3767;SDS011;1899;49.966;7.106;2023-03-25T19:43:12;2.60;;;1.30;;
3767;SDS011;1899;49.966;7.106;2023-03-25T19:45:37;2.30;;;1.10;;
3767;SDS011;1899;49.966;7.106;2023-03-25T19:48:02;6.00;;;1.40;;
3767;SDS011;1899;49.966;7.106;2023-03-25T19:50:29;2.63;;;1.20;;
3767;SDS011;1899;49.966;7.106;2023-03-25T19:52:56;2.83;;;1.48;;
3767;SDS011;1899;49.966;7.106;2023-03-25T19:55:21;3.70;;;1.00;;
3767;SDS011;1899;49.966;7.106;2023-03-25T19:57:48;4.20;;;1.10;;
3767;SDS011;1899;49.966;7.106;2023-03-25T20:00:15;3.80;;;1.38;;
3767;SDS011;1899;49.966;7.106;2023-03-25T20:02:44;3.97;;;1.40;;
3767;SDS011;1899;49.966;7.106;2023-03-25T20:05:10;3.38;;;1.10;;
3767;SDS011;1899;49.966;7.106;2023-03-25T20:07:36;2.78;;;1.10;;
3767;SDS011;1899;49.966;7.106;2023-03-25T20:10:02;3.15;;;1.20;;
3767;SDS011;1899;49.966;7.106;2023-03-25T20:12:28;3.47;;;1.00;;
3767;SDS011;1899;49.966;7.106;2023-03-25T20:14:53;3.25;;;1.20;;
3767;SDS011;1899;49.966;7.106;2023-03-25T20:17:19;3.10;;;1.20;;
3767;SDS011;1899;49.966;7.106;2023-03-25T20:19:44;2.20;;;1.00;;
3767;SDS011;1899;49.966;7.106;2023-03-25T20:22:10;3.47;;;1.10;;
3767;SDS011;1899;49.966;7.106;2023-03-25T20:24:35;2.00;;;1.00;;
3767;SDS011;1899;49.966;7.106;2023-03-25T20:27:00;2.87;;;1.03;;
3767;SDS011;1899;49.966;7.106;2023-03-25T20:29:26;3.30;;;1.30;;
3767;SDS011;1899;49.966;7.106;2023-03-25T20:31:51;3.27;;;1.40;;
3767;SDS011;1899;49.966;7.106;2023-03-25T20:34:16;3.00;;;1.30;;
3767;SDS011;1899;49.966;7.106;2023-03-25T20:36:42;3.43;;;1.20;;
3767;SDS011;1899;49.966;7.106;2023-03-25T20:39:07;4.07;;;1.20;;
3767;SDS011;1899;49.966;7.106;2023-03-25T20:41:32;2.55;;;1.33;;
3767;SDS011;1899;49.966;7.106;2023-03-25T20:43:58;2.23;;;1.27;;
3767;SDS011;1899;49.966;7.106;2023-03-25T20:46:23;5.27;;;1.40;;
3767;SDS011;1899;49.966;7.106;2023-03-25T20:48:52;5.03;;;1.10;;
3767;SDS011;1899;49.966;7.106;2023-03-25T20:51:17;2.73;;;1.43;;
3767;SDS011;1899;49.966;7.106;2023-03-25T20:53:42;3.70;;;1.47;;
3767;SDS011;1899;49.966;7.106;2023-03-25T20:56:09;3.95;;;1.50;;
3767;SDS011;1899;49.966;7.106;2023-03-25T20:58:34;3.17;;;1.60;;
